sensor_id;sensor_type;location;lat;lon;timestamp;temperature;humidity
18906;DHT22;9585;51.018;4.282;2022-08-24T00:00:54;18.20;99.90
18906;DHT22;9585;51.018;4.282;2022-08-24T00:03:21;18.20;99.90
18906;DHT22;9585;51.018;4.282;2022-08-24T00:05:49;18.20;99.90
18906;DHT22;9585;51.018;4.282;2022-08-24T00:08:16;18.10;99.90
18906;DHT22;9585;51.018;4.282;2022-08-24T00:10:44;18.10;99.90
18906;DHT22;9585;51.018;4.282;2022-08-24T00:13:13;18.10;99.90
18906;DHT22;9585;51.018;4.282;2022-08-24T00:15:41;18.10;99.90
18906;DHT22;9585;51.018;4.282;2022-08-24T00:18:09;18.10;99.90
18906;DHT22;9585;51.018;4.282;2022-08-24T00:20:37;18.10;99.90
18906;DHT22;9585;51.018;4.282;2022-08-24T00:23:06;18.00;99.90
18906;DHT22;9585;51.018;4.282;2022-08-24T00:25:33;18.00;99.90
18906;DHT22;9585;51.018;4.282;2022-08-24T00:28:02;18.00;99.90
18906;DHT22;9585;51.018;4.282;2022-08-24T00:30:31;17.90;99.90
18906;DHT22;9585;51.018;4.282;2022-08-24T00:32:59;17.90;99.90
18906;DHT22;9585;51.018;4.282;2022-08-24T00:35:26;17.90;99.90
18906;DHT22;9585;51.018;4.282;2022-08-24T00:37:54;17.80;99.90
18906;DHT22;9585;51.018;4.282;2022-08-24T00:40:23;17.80;99.90
18906;DHT22;9585;51.018;4.282;2022-08-24T00:42:51;17.80;99.90
18906;DHT22;9585;51.018;4.282;2022-08-24T00:45:19;17.80;99.90
18906;DHT22;9585;51.018;4.282;2022-08-24T00:48:00;17.70;99.90
18906;DHT22;9585;51.018;4.282;2022-08-24T00:50:33;17.70;99.90
18906;DHT22;9585;51.018;4.282;2022-08-24T00:53:05;17.70;99.90
18906;DHT22;9585;51.018;4.282;2022-08-24T00:55:36;17.60;99.90
18906;DHT22;9585;51.018;4.282;2022-08-24T00:58:08;17.70;99.90
18906;DHT22;9585;51.018;4.282;2022-08-24T01:00:41;17.60;99.90
18906;DHT22;9585;51.018;4.282;2022-08-24T01:03:11;17.60;99.90
18906;DHT22;9585;51.018;4.282;2022-08-24T01:05:39;17.60;99.90
18906;DHT22;9585;51.018;4.282;2022-08-24T01:08:09;17.60;99.90
18906;DHT22;9585;51.018;4.282;2022-08-24T01:10:40;17.60;99.90
18906;DHT22;9585;51.018;4.282;2022-08-24T01:13:10;17.50;99.90
18906;DHT22;9585;51.018;4.282;2022-08-24T01:15:40;17.50;99.90
18906;DHT22;9585;51.018;4.282;2022-08-24T01:18:14;17.50;99.90
18906;DHT22;9585;51.018;4.282;2022-08-24T01:21:02;17.40;99.90
18906;DHT22;9585;51.018;4.282;2022-08-24T01:23:37;17.40;99.90
18906;DHT22;9585;51.018;4.282;2022-08-24T01:26:06;17.30;99.90
18906;DHT22;9585;51.018;4.282;2022-08-24T01:28:34;17.30;99.90
18906;DHT22;9585;51.018;4.282;2022-08-24T01:31:04;17.30;99.90
18906;DHT22;9585;51.018;4.282;2022-08-24T01:33:32;17.30;99.90
18906;DHT22;9585;51.018;4.282;2022-08-24T01:36:03;17.30;99.90
18906;DHT22;9585;51.018;4.282;2022-08-24T01:38:31;17.30;99.90
18906;DHT22;9585;51.018;4.282;2022-08-24T01:41:02;17.30;99.90
18906;DHT22;9585;51.018;4.282;2022-08-24T01:43:30;17.20;99.90
18906;DHT22;9585;51.018;4.282;2022-08-24T01:45:57;17.20;99.90
18906;DHT22;9585;51.018;4.282;2022-08-24T01:48:24;17.20;99.90
18906;DHT22;9585;51.018;4.282;2022-08-24T01:50:52;17.20;99.90
18906;DHT22;9585;51.018;4.282;2022-08-24T01:53:19;17.20;99.90
18906;DHT22;9585;51.018;4.282;2022-08-24T01:55:46;17.20;99.90
18906;DHT22;9585;51.018;4.282;2022-08-24T01:58:16;17.10;99.90
18906;DHT22;9585;51.018;4.282;2022-08-24T02:00:43;17.10;99.90
18906;DHT22;9585;51.018;4.282;2022-08-24T02:03:11;17.10;99.90
18906;DHT22;9585;51.018;4.282;2022-08-24T02:05:38;17.10;99.90
18906;DHT22;9585;51.018;4.282;2022-08-24T02:08:05;17.10;99.90
18906;DHT22;9585;51.018;4.282;2022-08-24T02:10:32;17.10;99.90
18906;DHT22;9585;51.018;4.282;2022-08-24T02:13:03;17.10;99.90
18906;DHT22;9585;51.018;4.282;2022-08-24T02:15:36;17.00;99.90
18906;DHT22;9585;51.018;4.282;2022-08-24T02:18:05;17.00;99.90
18906;DHT22;9585;51.018;4.282;2022-08-24T02:20:34;17.00;99.90
18906;DHT22;9585;51.018;4.282;2022-08-24T02:23:03;17.00;99.90
18906;DHT22;9585;51.018;4.282;2022-08-24T02:25:31;17.00;99.90
18906;DHT22;9585;51.018;4.282;2022-08-24T02:27:59;16.90;99.90
18906;DHT22;9585;51.018;4.282;2022-08-24T02:30:27;16.90;99.90
18906;DHT22;9585;51.018;4.282;2022-08-24T02:32:56;16.90;99.90
18906;DHT22;9585;51.018;4.282;2022-08-24T02:35:24;16.90;99.90
18906;DHT22;9585;51.018;4.282;2022-08-24T02:37:51;16.90;99.90
18906;DHT22;9585;51.018;4.282;2022-08-24T02:40:18;16.80;99.90
18906;DHT22;9585;51.018;4.282;2022-08-24T02:42:45;16.70;99.90
18906;DHT22;9585;51.018;4.282;2022-08-24T02:45:13;16.60;99.90
18906;DHT22;9585;51.018;4.282;2022-08-24T02:47:40;16.60;99.90
18906;DHT22;9585;51.018;4.282;2022-08-24T02:50:12;16.60;99.90
18906;DHT22;9585;51.018;4.282;2022-08-24T02:52:40;16.60;99.90
18906;DHT22;9585;51.018;4.282;2022-08-24T02:55:10;16.60;99.90
18906;DHT22;9585;51.018;4.282;2022-08-24T02:57:38;16.60;99.90
18906;DHT22;9585;51.018;4.282;2022-08-24T03:00:09;16.60;99.90
18906;DHT22;9585;51.018;4.282;2022-08-24T03:02:37;16.60;99.90
18906;DHT22;9585;51.018;4.282;2022-08-24T03:05:07;16.60;99.90
18906;DHT22;9585;51.018;4.282;2022-08-24T03:07:39;16.50;99.90
18906;DHT22;9585;51.018;4.282;2022-08-24T03:10:07;16.60;99.90
18906;DHT22;9585;51.018;4.282;2022-08-24T03:12:34;16.60;99.90
18906;DHT22;9585;51.018;4.282;2022-08-24T03:15:03;16.60;99.90
18906;DHT22;9585;51.018;4.282;2022-08-24T03:17:31;16.60;99.90
18906;DHT22;9585;51.018;4.282;2022-08-24T03:19:59;16.60;99.90
18906;DHT22;9585;51.018;4.282;2022-08-24T03:22:26;16.60;99.90
18906;DHT22;9585;51.018;4.282;2022-08-24T03:24:55;16.60;99.90
18906;DHT22;9585;51.018;4.282;2022-08-24T03:27:22;16.60;99.90
18906;DHT22;9585;51.018;4.282;2022-08-24T03:29:50;16.60;99.90
18906;DHT22;9585;51.018;4.282;2022-08-24T03:32:17;16.60;99.90
18906;DHT22;9585;51.018;4.282;2022-08-24T03:34:45;16.60;99.90
18906;DHT22;9585;51.018;4.282;2022-08-24T03:37:12;16.60;99.90
18906;DHT22;9585;51.018;4.282;2022-08-24T03:39:41;16.50;99.90
18906;DHT22;9585;51.018;4.282;2022-08-24T03:42:10;16.40;99.90
18906;DHT22;9585;51.018;4.282;2022-08-24T03:44:37;16.40;99.90
18906;DHT22;9585;51.018;4.282;2022-08-24T03:47:06;16.40;99.90
18906;DHT22;9585;51.018;4.282;2022-08-24T03:49:35;16.40;99.90
18906;DHT22;9585;51.018;4.282;2022-08-24T03:52:03;16.40;99.90
18906;DHT22;9585;51.018;4.282;2022-08-24T03:54:30;16.40;99.90
18906;DHT22;9585;51.018;4.282;2022-08-24T03:56:58;16.40;99.90
18906;DHT22;9585;51.018;4.282;2022-08-24T03:59:28;16.40;99.90
18906;DHT22;9585;51.018;4.282;2022-08-24T04:01:56;16.40;99.90
18906;DHT22;9585;51.018;4.282;2022-08-24T04:04:23;16.40;99.90
18906;DHT22;9585;51.018;4.282;2022-08-24T04:06:50;16.40;99.90
18906;DHT22;9585;51.018;4.282;2022-08-24T04:09:18;16.40;99.90
18906;DHT22;9585;51.018;4.282;2022-08-24T04:11:45;16.40;99.90
18906;DHT22;9585;51.018;4.282;2022-08-24T04:14:14;16.40;99.90
18906;DHT22;9585;51.018;4.282;2022-08-24T04:16:43;16.40;99.90
18906;DHT22;9585;51.018;4.282;2022-08-24T04:19:11;16.30;99.90
18906;DHT22;9585;51.018;4.282;2022-08-24T04:21:38;16.30;99.90
18906;DHT22;9585;51.018;4.282;2022-08-24T04:24:07;16.30;99.90
18906;DHT22;9585;51.018;4.282;2022-08-24T04:26:37;16.30;99.90
18906;DHT22;9585;51.018;4.282;2022-08-24T04:29:06;16.30;99.90
18906;DHT22;9585;51.018;4.282;2022-08-24T04:31:35;16.30;99.90
18906;DHT22;9585;51.018;4.282;2022-08-24T04:34:04;16.30;99.90
18906;DHT22;9585;51.018;4.282;2022-08-24T04:36:32;16.30;99.90
18906;DHT22;9585;51.018;4.282;2022-08-24T04:39:00;16.30;99.90
18906;DHT22;9585;51.018;4.282;2022-08-24T04:41:27;16.20;99.90
18906;DHT22;9585;51.018;4.282;2022-08-24T04:43:55;16.20;99.90
18906;DHT22;9585;51.018;4.282;2022-08-24T04:46:22;16.20;99.90
18906;DHT22;9585;51.018;4.282;2022-08-24T04:48:49;16.20;99.90
18906;DHT22;9585;51.018;4.282;2022-08-24T04:51:19;16.20;99.90
18906;DHT22;9585;51.018;4.282;2022-08-24T04:53:47;16.20;99.90
18906;DHT22;9585;51.018;4.282;2022-08-24T04:56:20;16.20;99.90
18906;DHT22;9585;51.018;4.282;2022-08-24T04:58:48;16.20;99.90
18906;DHT22;9585;51.018;4.282;2022-08-24T05:01:18;16.20;99.90
18906;DHT22;9585;51.018;4.282;2022-08-24T05:03:46;16.20;99.90
18906;DHT22;9585;51.018;4.282;2022-08-24T05:06:17;16.20;99.90
18906;DHT22;9585;51.018;4.282;2022-08-24T05:08:45;16.30;99.90
18906;DHT22;9585;51.018;4.282;2022-08-24T05:11:13;16.30;99.90
18906;DHT22;9585;51.018;4.282;2022-08-24T05:13:40;16.30;99.90
18906;DHT22;9585;51.018;4.282;2022-08-24T05:16:09;16.40;99.90
18906;DHT22;9585;51.018;4.282;2022-08-24T05:18:37;16.40;99.90
18906;DHT22;9585;51.018;4.282;2022-08-24T05:21:06;16.50;99.90
18906;DHT22;9585;51.018;4.282;2022-08-24T05:23:35;16.50;99.90
18906;DHT22;9585;51.018;4.282;2022-08-24T05:26:04;16.60;99.90
18906;DHT22;9585;51.018;4.282;2022-08-24T05:28:32;16.90;99.90
18906;DHT22;9585;51.018;4.282;2022-08-24T05:31:08;17.60;99.90
18906;DHT22;9585;51.018;4.282;2022-08-24T05:33:36;18.60;99.90
18906;DHT22;9585;51.018;4.282;2022-08-24T05:36:04;19.70;99.90
18906;DHT22;9585;51.018;4.282;2022-08-24T05:38:32;20.70;99.90
18906;DHT22;9585;51.018;4.282;2022-08-24T05:41:04;21.10;99.90
18906;DHT22;9585;51.018;4.282;2022-08-24T05:43:32;20.70;99.90
18906;DHT22;9585;51.018;4.282;2022-08-24T05:45:59;20.30;99.90
18906;DHT22;9585;51.018;4.282;2022-08-24T05:48:26;20.30;99.90
18906;DHT22;9585;51.018;4.282;2022-08-24T05:50:54;21.00;99.90
18906;DHT22;9585;51.018;4.282;2022-08-24T05:53:21;21.90;99.90
18906;DHT22;9585;51.018;4.282;2022-08-24T05:55:49;23.00;99.90
18906;DHT22;9585;51.018;4.282;2022-08-24T05:58:18;24.00;99.90
18906;DHT22;9585;51.018;4.282;2022-08-24T06:00:45;24.90;99.90
18906;DHT22;9585;51.018;4.282;2022-08-24T06:03:14;25.70;99.90
18906;DHT22;9585;51.018;4.282;2022-08-24T06:05:42;26.40;99.90
18906;DHT22;9585;51.018;4.282;2022-08-24T06:08:11;27.10;99.90
18906;DHT22;9585;51.018;4.282;2022-08-24T06:10:39;27.40;99.90
18906;DHT22;9585;51.018;4.282;2022-08-24T06:13:08;27.60;99.90
18906;DHT22;9585;51.018;4.282;2022-08-24T06:15:38;28.00;99.90
18906;DHT22;9585;51.018;4.282;2022-08-24T06:18:07;28.40;99.90
18906;DHT22;9585;51.018;4.282;2022-08-24T06:20:39;28.70;99.90
18906;DHT22;9585;51.018;4.282;2022-08-24T06:23:07;29.20;99.90
18906;DHT22;9585;51.018;4.282;2022-08-24T06:25:38;29.40;99.90
18906;DHT22;9585;51.018;4.282;2022-08-24T06:28:24;29.50;99.90
18906;DHT22;9585;51.018;4.282;2022-08-24T06:31:01;29.80;99.90
18906;DHT22;9585;51.018;4.282;2022-08-24T06:33:29;30.20;99.90
18906;DHT22;9585;51.018;4.282;2022-08-24T06:35:56;29.60;99.90
18906;DHT22;9585;51.018;4.282;2022-08-24T06:38:23;29.10;99.90
18906;DHT22;9585;51.018;4.282;2022-08-24T06:40:50;28.80;99.90
18906;DHT22;9585;51.018;4.282;2022-08-24T06:43:17;28.90;99.90
18906;DHT22;9585;51.018;4.282;2022-08-24T06:45:44;28.70;99.90
18906;DHT22;9585;51.018;4.282;2022-08-24T06:48:13;28.60;99.90
18906;DHT22;9585;51.018;4.282;2022-08-24T06:50:41;29.20;99.90
18906;DHT22;9585;51.018;4.282;2022-08-24T06:53:09;29.80;99.90
18906;DHT22;9585;51.018;4.282;2022-08-24T06:55:43;30.40;99.90
18906;DHT22;9585;51.018;4.282;2022-08-24T06:58:11;30.00;99.90
18906;DHT22;9585;51.018;4.282;2022-08-24T07:00:38;29.50;99.90
18906;DHT22;9585;51.018;4.282;2022-08-24T07:03:05;29.10;99.90
18906;DHT22;9585;51.018;4.282;2022-08-24T07:05:34;28.90;99.90
18906;DHT22;9585;51.018;4.282;2022-08-24T07:08:02;28.90;99.90
18906;DHT22;9585;51.018;4.282;2022-08-24T07:10:30;28.90;99.90
18906;DHT22;9585;51.018;4.282;2022-08-24T07:12:58;29.20;99.90
18906;DHT22;9585;51.018;4.282;2022-08-24T07:15:25;29.90;99.90
18906;DHT22;9585;51.018;4.282;2022-08-24T07:17:52;30.30;99.90
18906;DHT22;9585;51.018;4.282;2022-08-24T07:20:19;30.50;99.90
18906;DHT22;9585;51.018;4.282;2022-08-24T07:22:48;30.90;99.90
18906;DHT22;9585;51.018;4.282;2022-08-24T07:25:15;31.40;99.90
18906;DHT22;9585;51.018;4.282;2022-08-24T07:27:43;31.50;99.90
18906;DHT22;9585;51.018;4.282;2022-08-24T07:30:10;30.50;99.90
18906;DHT22;9585;51.018;4.282;2022-08-24T07:32:37;30.00;99.90
18906;DHT22;9585;51.018;4.282;2022-08-24T07:35:05;28.90;99.90
18906;DHT22;9585;51.018;4.282;2022-08-24T07:37:32;28.30;99.90
18906;DHT22;9585;51.018;4.282;2022-08-24T07:40:01;28.00;99.90
18906;DHT22;9585;51.018;4.282;2022-08-24T07:42:29;27.90;99.90
18906;DHT22;9585;51.018;4.282;2022-08-24T07:44:56;27.70;99.90
18906;DHT22;9585;51.018;4.282;2022-08-24T07:47:24;27.50;99.90
18906;DHT22;9585;51.018;4.282;2022-08-24T07:49:51;26.80;99.90
18906;DHT22;9585;51.018;4.282;2022-08-24T07:52:18;26.30;99.90
18906;DHT22;9585;51.018;4.282;2022-08-24T07:54:45;26.10;99.90
18906;DHT22;9585;51.018;4.282;2022-08-24T07:57:14;25.90;99.90
18906;DHT22;9585;51.018;4.282;2022-08-24T07:59:41;25.80;99.90
18906;DHT22;9585;51.018;4.282;2022-08-24T08:02:08;25.80;99.90
18906;DHT22;9585;51.018;4.282;2022-08-24T08:04:37;26.40;99.90
18906;DHT22;9585;51.018;4.282;2022-08-24T08:07:04;26.70;99.90
18906;DHT22;9585;51.018;4.282;2022-08-24T08:09:35;27.20;99.90
18906;DHT22;9585;51.018;4.282;2022-08-24T08:12:07;27.40;99.90
18906;DHT22;9585;51.018;4.282;2022-08-24T08:14:36;26.70;99.90
18906;DHT22;9585;51.018;4.282;2022-08-24T08:17:04;26.40;99.90
18906;DHT22;9585;51.018;4.282;2022-08-24T08:19:32;26.40;99.90
18906;DHT22;9585;51.018;4.282;2022-08-24T08:21:59;26.30;99.90
18906;DHT22;9585;51.018;4.282;2022-08-24T08:24:44;26.10;99.90
18906;DHT22;9585;51.018;4.282;2022-08-24T08:27:21;25.80;99.90
18906;DHT22;9585;51.018;4.282;2022-08-24T08:29:55;25.50;99.90
18906;DHT22;9585;51.018;4.282;2022-08-24T08:32:22;25.50;99.90
18906;DHT22;9585;51.018;4.282;2022-08-24T08:34:49;25.10;99.90
18906;DHT22;9585;51.018;4.282;2022-08-24T08:37:17;25.00;99.90
18906;DHT22;9585;51.018;4.282;2022-08-24T08:39:46;24.90;99.90
18906;DHT22;9585;51.018;4.282;2022-08-24T08:45:51;24.70;99.90
18906;DHT22;9585;51.018;4.282;2022-08-24T08:48:50;24.60;99.90
18906;DHT22;9585;51.018;4.282;2022-08-24T08:51:48;24.50;99.90
18906;DHT22;9585;51.018;4.282;2022-08-24T08:57:38;24.00;99.90
18906;DHT22;9585;51.018;4.282;2022-08-24T09:00:14;24.30;99.90
18906;DHT22;9585;51.018;4.282;2022-08-24T09:06:17;24.70;99.90
18906;DHT22;9585;51.018;4.282;2022-08-24T09:09:04;25.10;99.90
18906;DHT22;9585;51.018;4.282;2022-08-24T09:11:43;25.60;99.90
18906;DHT22;9585;51.018;4.282;2022-08-24T09:14:30;26.10;99.90
18906;DHT22;9585;51.018;4.282;2022-08-24T09:17:13;26.50;99.90
18906;DHT22;9585;51.018;4.282;2022-08-24T09:19:57;26.80;99.90
18906;DHT22;9585;51.018;4.282;2022-08-24T09:22:36;27.20;99.90
18906;DHT22;9585;51.018;4.282;2022-08-24T09:25:18;27.40;99.90
18906;DHT22;9585;51.018;4.282;2022-08-24T09:28:12;27.60;99.90
18906;DHT22;9585;51.018;4.282;2022-08-24T09:31:02;27.50;99.90
18906;DHT22;9585;51.018;4.282;2022-08-24T09:33:36;27.90;99.90
18906;DHT22;9585;51.018;4.282;2022-08-24T09:36:08;28.20;99.90
18906;DHT22;9585;51.018;4.282;2022-08-24T09:39:03;27.90;99.90
18906;DHT22;9585;51.018;4.282;2022-08-24T09:41:51;27.60;99.90
18906;DHT22;9585;51.018;4.282;2022-08-24T09:47:54;28.00;99.90
18906;DHT22;9585;51.018;4.282;2022-08-24T09:56:38;28.30;99.90
18906;DHT22;9585;51.018;4.282;2022-08-24T10:02:32;28.30;99.90
18906;DHT22;9585;51.018;4.282;2022-08-24T10:05:10;27.50;99.90
18906;DHT22;9585;51.018;4.282;2022-08-24T10:07:48;27.80;99.90
18906;DHT22;9585;51.018;4.282;2022-08-24T10:10:25;28.30;99.90
18906;DHT22;9585;51.018;4.282;2022-08-24T10:13:06;28.40;99.90
18906;DHT22;9585;51.018;4.282;2022-08-24T10:15:39;28.30;99.90
18906;DHT22;9585;51.018;4.282;2022-08-24T10:21:11;28.60;99.90
18906;DHT22;9585;51.018;4.282;2022-08-24T10:24:06;27.70;99.90
18906;DHT22;9585;51.018;4.282;2022-08-24T10:26:54;27.90;99.90
18906;DHT22;9585;51.018;4.282;2022-08-24T10:29:48;27.90;99.90
18906;DHT22;9585;51.018;4.282;2022-08-24T10:32:32;28.20;99.90
18906;DHT22;9585;51.018;4.282;2022-08-24T10:35:09;28.30;99.90
18906;DHT22;9585;51.018;4.282;2022-08-24T10:38:07;28.60;99.90
18906;DHT22;9585;51.018;4.282;2022-08-24T10:41:07;29.10;99.90
18906;DHT22;9585;51.018;4.282;2022-08-24T10:44:01;29.00;99.90
18906;DHT22;9585;51.018;4.282;2022-08-24T10:46:46;29.20;99.90
18906;DHT22;9585;51.018;4.282;2022-08-24T10:52:49;29.20;99.90
18906;DHT22;9585;51.018;4.282;2022-08-24T10:55:22;28.90;99.90
18906;DHT22;9585;51.018;4.282;2022-08-24T11:00:47;29.50;99.90
18906;DHT22;9585;51.018;4.282;2022-08-24T11:03:20;29.80;99.90
18906;DHT22;9585;51.018;4.282;2022-08-24T11:05:53;29.90;99.90
18906;DHT22;9585;51.018;4.282;2022-08-24T11:08:23;30.00;99.90
18906;DHT22;9585;51.018;4.282;2022-08-24T11:11:12;29.50;99.90
18906;DHT22;9585;51.018;4.282;2022-08-24T11:13:52;29.60;99.90
18906;DHT22;9585;51.018;4.282;2022-08-24T11:16:28;29.50;99.90
18906;DHT22;9585;51.018;4.282;2022-08-24T11:18:59;29.40;99.90
18906;DHT22;9585;51.018;4.282;2022-08-24T11:21:48;29.50;99.90
18906;DHT22;9585;51.018;4.282;2022-08-24T11:24:29;29.80;99.90
18906;DHT22;9585;51.018;4.282;2022-08-24T11:27:00;29.60;99.90
18906;DHT22;9585;51.018;4.282;2022-08-24T11:29:54;29.60;99.90
18906;DHT22;9585;51.018;4.282;2022-08-24T11:32:32;29.70;99.90
18906;DHT22;9585;51.018;4.282;2022-08-24T11:35:09;30.00;99.90
18906;DHT22;9585;51.018;4.282;2022-08-24T11:37:43;30.30;99.90
18906;DHT22;9585;51.018;4.282;2022-08-24T11:40:12;30.20;99.90
18906;DHT22;9585;51.018;4.282;2022-08-24T11:46:01;30.00;99.90
18906;DHT22;9585;51.018;4.282;2022-08-24T11:48:37;29.70;99.90
18906;DHT22;9585;51.018;4.282;2022-08-24T11:51:15;29.70;99.90
18906;DHT22;9585;51.018;4.282;2022-08-24T11:53:57;29.70;99.90
18906;DHT22;9585;51.018;4.282;2022-08-24T11:56:29;29.90;99.90
18906;DHT22;9585;51.018;4.282;2022-08-24T11:59:01;30.10;99.90
18906;DHT22;9585;51.018;4.282;2022-08-24T12:01:34;30.40;99.90
18906;DHT22;9585;51.018;4.282;2022-08-24T12:04:20;30.80;99.90
18906;DHT22;9585;51.018;4.282;2022-08-24T12:07:10;30.80;99.90
18906;DHT22;9585;51.018;4.282;2022-08-24T12:09:58;31.00;99.90
18906;DHT22;9585;51.018;4.282;2022-08-24T12:12:44;30.90;99.90
18906;DHT22;9585;51.018;4.282;2022-08-24T12:15:37;30.90;99.90
18906;DHT22;9585;51.018;4.282;2022-08-24T12:18:19;30.70;99.90
18906;DHT22;9585;51.018;4.282;2022-08-24T12:21:11;30.00;99.90
18906;DHT22;9585;51.018;4.282;2022-08-24T12:23:42;30.20;99.90
18906;DHT22;9585;51.018;4.282;2022-08-24T12:26:20;30.30;99.90
18906;DHT22;9585;51.018;4.282;2022-08-24T12:28:51;30.40;99.90
18906;DHT22;9585;51.018;4.282;2022-08-24T12:31:23;30.40;99.90
18906;DHT22;9585;51.018;4.282;2022-08-24T12:34:00;30.20;99.90
18906;DHT22;9585;51.018;4.282;2022-08-24T12:36:46;30.20;99.90
18906;DHT22;9585;51.018;4.282;2022-08-24T12:39:19;30.20;99.90
18906;DHT22;9585;51.018;4.282;2022-08-24T12:41:56;30.40;99.90
18906;DHT22;9585;51.018;4.282;2022-08-24T12:44:30;30.70;99.90
18906;DHT22;9585;51.018;4.282;2022-08-24T12:47:00;30.90;99.90
18906;DHT22;9585;51.018;4.282;2022-08-24T12:49:31;30.90;99.90
18906;DHT22;9585;51.018;4.282;2022-08-24T12:52:16;30.90;99.90
18906;DHT22;9585;51.018;4.282;2022-08-24T12:55:09;30.80;99.90
18906;DHT22;9585;51.018;4.282;2022-08-24T12:57:47;30.90;99.90
18906;DHT22;9585;51.018;4.282;2022-08-24T13:00:19;30.50;99.90
18906;DHT22;9585;51.018;4.282;2022-08-24T13:02:55;30.30;99.90
18906;DHT22;9585;51.018;4.282;2022-08-24T13:05:23;30.30;99.90
18906;DHT22;9585;51.018;4.282;2022-08-24T13:07:52;30.60;99.90
18906;DHT22;9585;51.018;4.282;2022-08-24T13:10:40;30.70;99.90
18906;DHT22;9585;51.018;4.282;2022-08-24T13:13:18;30.60;99.90
18906;DHT22;9585;51.018;4.282;2022-08-24T13:15:52;30.40;99.90
18906;DHT22;9585;51.018;4.282;2022-08-24T13:21:15;29.90;99.90
18906;DHT22;9585;51.018;4.282;2022-08-24T13:23:42;29.90;99.90
18906;DHT22;9585;51.018;4.282;2022-08-24T13:26:24;29.70;99.90
18906;DHT22;9585;51.018;4.282;2022-08-24T13:28:53;29.60;99.90
18906;DHT22;9585;51.018;4.282;2022-08-24T13:31:26;29.70;99.90
18906;DHT22;9585;51.018;4.282;2022-08-24T13:33:58;29.80;99.90
18906;DHT22;9585;51.018;4.282;2022-08-24T13:36:41;30.20;99.90
18906;DHT22;9585;51.018;4.282;2022-08-24T13:39:43;30.30;99.90
18906;DHT22;9585;51.018;4.282;2022-08-24T13:42:22;30.40;99.90
18906;DHT22;9585;51.018;4.282;2022-08-24T13:45:07;30.80;99.90
18906;DHT22;9585;51.018;4.282;2022-08-24T13:47:53;31.10;99.90
18906;DHT22;9585;51.018;4.282;2022-08-24T13:50:31;31.20;99.90
18906;DHT22;9585;51.018;4.282;2022-08-24T13:53:16;31.20;99.90
18906;DHT22;9585;51.018;4.282;2022-08-24T13:55:54;31.40;99.90
18906;DHT22;9585;51.018;4.282;2022-08-24T13:58:34;31.60;99.90
18906;DHT22;9585;51.018;4.282;2022-08-24T14:01:21;31.70;99.90
18906;DHT22;9585;51.018;4.282;2022-08-24T14:04:11;31.30;99.90
18906;DHT22;9585;51.018;4.282;2022-08-24T14:06:49;31.10;99.90
18906;DHT22;9585;51.018;4.282;2022-08-24T14:09:36;31.00;99.90
18906;DHT22;9585;51.018;4.282;2022-08-24T14:12:21;31.20;99.90
18906;DHT22;9585;51.018;4.282;2022-08-24T14:15:02;31.30;99.90
18906;DHT22;9585;51.018;4.282;2022-08-24T14:17:40;31.10;99.90
18906;DHT22;9585;51.018;4.282;2022-08-24T14:23:31;30.60;99.90
18906;DHT22;9585;51.018;4.282;2022-08-24T14:32:28;30.90;99.90
18906;DHT22;9585;51.018;4.282;2022-08-24T14:35:04;30.90;99.90
18906;DHT22;9585;51.018;4.282;2022-08-24T14:37:48;31.00;99.90
18906;DHT22;9585;51.018;4.282;2022-08-24T14:40:25;31.10;99.90
18906;DHT22;9585;51.018;4.282;2022-08-24T14:42:56;31.30;99.90
18906;DHT22;9585;51.018;4.282;2022-08-24T14:45:34;31.50;99.90
18906;DHT22;9585;51.018;4.282;2022-08-24T14:48:14;31.40;99.90
18906;DHT22;9585;51.018;4.282;2022-08-24T14:50:58;31.40;99.90
18906;DHT22;9585;51.018;4.282;2022-08-24T14:53:46;31.50;99.90
18906;DHT22;9585;51.018;4.282;2022-08-24T14:56:25;31.70;99.90
18906;DHT22;9585;51.018;4.282;2022-08-24T14:59:01;31.80;99.90
18906;DHT22;9585;51.018;4.282;2022-08-24T15:01:40;31.90;99.90
18906;DHT22;9585;51.018;4.282;2022-08-24T15:04:29;31.80;99.90
18906;DHT22;9585;51.018;4.282;2022-08-24T15:07:07;31.70;99.90
18906;DHT22;9585;51.018;4.282;2022-08-24T15:09:45;31.70;99.90
18906;DHT22;9585;51.018;4.282;2022-08-24T15:12:25;31.50;99.90
18906;DHT22;9585;51.018;4.282;2022-08-24T15:14:59;31.30;99.90
18906;DHT22;9585;51.018;4.282;2022-08-24T15:17:38;31.00;99.90
18906;DHT22;9585;51.018;4.282;2022-08-24T15:20:16;30.90;99.90
18906;DHT22;9585;51.018;4.282;2022-08-24T15:22:48;30.80;99.90
18906;DHT22;9585;51.018;4.282;2022-08-24T15:25:22;30.60;99.90
18906;DHT22;9585;51.018;4.282;2022-08-24T15:27:57;30.60;99.90
18906;DHT22;9585;51.018;4.282;2022-08-24T15:30:26;30.60;99.90
18906;DHT22;9585;51.018;4.282;2022-08-24T15:33:03;30.50;99.90
18906;DHT22;9585;51.018;4.282;2022-08-24T15:35:35;30.50;99.90
18906;DHT22;9585;51.018;4.282;2022-08-24T15:38:20;30.50;99.90
18906;DHT22;9585;51.018;4.282;2022-08-24T15:40:50;30.40;99.90
18906;DHT22;9585;51.018;4.282;2022-08-24T15:43:18;30.40;99.90
18906;DHT22;9585;51.018;4.282;2022-08-24T15:45:47;30.40;99.90
18906;DHT22;9585;51.018;4.282;2022-08-24T15:48:18;30.40;99.90
18906;DHT22;9585;51.018;4.282;2022-08-24T15:50:50;30.30;99.90
18906;DHT22;9585;51.018;4.282;2022-08-24T15:53:29;30.20;99.90
18906;DHT22;9585;51.018;4.282;2022-08-24T15:55:58;30.20;99.90
18906;DHT22;9585;51.018;4.282;2022-08-24T15:58:30;30.10;99.90
18906;DHT22;9585;51.018;4.282;2022-08-24T16:01:00;30.00;99.90
18906;DHT22;9585;51.018;4.282;2022-08-24T16:04:04;29.90;99.90
18906;DHT22;9585;51.018;4.282;2022-08-24T16:06:39;29.90;99.90
18906;DHT22;9585;51.018;4.282;2022-08-24T16:09:11;29.90;99.90
18906;DHT22;9585;51.018;4.282;2022-08-24T16:11:42;30.00;99.90
18906;DHT22;9585;51.018;4.282;2022-08-24T16:14:12;30.00;99.90
18906;DHT22;9585;51.018;4.282;2022-08-24T16:16:43;29.90;99.90
18906;DHT22;9585;51.018;4.282;2022-08-24T16:19:22;29.80;99.90
18906;DHT22;9585;51.018;4.282;2022-08-24T16:21:55;29.90;99.90
18906;DHT22;9585;51.018;4.282;2022-08-24T16:24:29;29.80;99.90
18906;DHT22;9585;51.018;4.282;2022-08-24T16:27:01;29.90;99.90
18906;DHT22;9585;51.018;4.282;2022-08-24T16:29:45;29.90;99.90
18906;DHT22;9585;51.018;4.282;2022-08-24T16:32:14;30.00;99.90
18906;DHT22;9585;51.018;4.282;2022-08-24T16:34:43;30.00;99.90
18906;DHT22;9585;51.018;4.282;2022-08-24T16:37:13;30.20;99.90
18906;DHT22;9585;51.018;4.282;2022-08-24T16:39:41;30.20;99.90
18906;DHT22;9585;51.018;4.282;2022-08-24T16:42:14;30.30;99.90
18906;DHT22;9585;51.018;4.282;2022-08-24T16:44:42;30.50;99.90
18906;DHT22;9585;51.018;4.282;2022-08-24T16:47:09;30.60;99.90
18906;DHT22;9585;51.018;4.282;2022-08-24T16:49:37;30.60;99.90
18906;DHT22;9585;51.018;4.282;2022-08-24T16:52:05;30.70;99.90
18906;DHT22;9585;51.018;4.282;2022-08-24T16:54:34;30.60;99.90
18906;DHT22;9585;51.018;4.282;2022-08-24T16:57:06;30.50;99.90
18906;DHT22;9585;51.018;4.282;2022-08-24T16:59:34;30.40;99.90
18906;DHT22;9585;51.018;4.282;2022-08-24T17:02:02;30.40;99.90
18906;DHT22;9585;51.018;4.282;2022-08-24T17:04:29;30.40;99.90
18906;DHT22;9585;51.018;4.282;2022-08-24T17:06:56;30.30;99.90
18906;DHT22;9585;51.018;4.282;2022-08-24T17:09:24;30.10;99.90